createdAt,value
2017-11-03T00:00:56.209Z,6.70
2017-11-03T00:03:25.276Z,6.60
2017-11-03T00:05:53.634Z,6.60
2017-11-03T00:08:21.943Z,6.60
2017-11-03T00:10:50.252Z,6.60
2017-11-03T00:13:18.569Z,6.60
2017-11-03T00:15:47.641Z,6.60
2017-11-03T00:18:15.999Z,6.60
2017-11-03T00:20:44.310Z,6.60
2017-11-03T00:23:12.620Z,6.70
2017-11-03T00:25:41.689Z,6.60
2017-11-03T00:28:10.000Z,6.50
2017-11-03T00:30:38.439Z,6.50
2017-11-03T00:33:07.533Z,6.40
2017-11-03T00:35:35.837Z,6.30
2017-11-03T00:38:05.091Z,6.30
2017-11-03T00:40:33.795Z,6.30
2017-11-03T00:43:02.120Z,6.30
2017-11-03T00:45:31.204Z,6.30
2017-11-03T00:47:59.499Z,6.30
2017-11-03T00:50:27.880Z,6.30
2017-11-03T00:52:56.189Z,6.30
2017-11-03T00:55:24.874Z,6.30
2017-11-03T00:57:53.172Z,6.30
2017-11-03T01:00:21.473Z,6.30
2017-11-03T01:02:50.736Z,6.30
2017-11-03T01:05:19.141Z,6.20
2017-11-03T01:07:47.453Z,6.10
2017-11-03T01:10:15.758Z,6.00
2017-11-03T01:12:44.941Z,5.80
2017-11-03T01:15:13.250Z,5.80
2017-11-03T01:17:42.101Z,5.70
2017-11-03T01:20:10.393Z,5.50
2017-11-03T01:22:38.756Z,5.40
2017-11-03T01:25:07.057Z,5.30
2017-11-03T01:27:35.519Z,5.10
2017-11-03T01:30:04.834Z,4.80
2017-11-03T01:32:33.523Z,4.80
2017-11-03T01:35:01.822Z,4.70
2017-11-03T01:37:31.188Z,4.50
2017-11-03T01:40:00.322Z,4.40
2017-11-03T01:42:28.627Z,4.30
2017-11-03T01:44:56.920Z,4.20
2017-11-03T01:47:25.985Z,4.20
2017-11-03T01:49:54.294Z,4.10
2017-11-03T01:52:22.590Z,4.00
2017-11-03T01:54:51.293Z,4.00
2017-11-03T01:57:19.600Z,3.80
2017-11-03T01:59:48.708Z,3.60
2017-11-03T02:02:17.968Z,3.60
2017-11-03T02:04:49.309Z,3.60
2017-11-03T02:07:17.626Z,3.60
2017-11-03T02:09:45.987Z,3.70
2017-11-03T02:12:14.629Z,3.70
2017-11-03T02:14:43.295Z,3.80
2017-11-03T02:17:12.325Z,3.80
2017-11-03T02:19:40.793Z,3.90
2017-11-03T02:22:09.275Z,3.90
2017-11-03T02:24:38.560Z,4.00
2017-11-03T02:27:07.512Z,4.10
2017-11-03T02:29:36.666Z,4.10
2017-11-03T02:32:06.231Z,4.30
2017-11-03T02:34:34.565Z,4.30
2017-11-03T02:37:02.843Z,4.30
2017-11-03T02:39:31.137Z,4.30
2017-11-03T02:41:59.465Z,4.30
2017-11-03T02:44:27.742Z,4.40
2017-11-03T02:46:56.026Z,4.40
2017-11-03T02:49:25.078Z,4.30
2017-11-03T02:51:53.377Z,4.30
2017-11-03T02:54:21.659Z,4.30
2017-11-03T02:56:49.972Z,4.30
2017-11-03T02:59:18.274Z,4.30
2017-11-03T03:01:47.352Z,4.50
2017-11-03T03:04:15.706Z,4.50
2017-11-03T03:06:44.030Z,4.50
2017-11-03T03:09:12.332Z,4.60
2017-11-03T03:11:40.640Z,4.70
2017-11-03T03:14:09.712Z,4.70
2017-11-03T03:16:38.007Z,4.70
2017-11-03T03:19:06.326Z,4.70
2017-11-03T03:21:35.392Z,4.90
2017-11-03T03:24:03.702Z,4.90
2017-11-03T03:26:31.991Z,5.00
2017-11-03T03:29:00.320Z,5.10
2017-11-03T03:31:28.641Z,5.10
2017-11-03T03:33:57.008Z,5.10
2017-11-03T03:36:25.395Z,5.10
2017-11-03T03:38:53.806Z,5.00
2017-11-03T03:41:22.179Z,5.00
2017-11-03T03:43:50.535Z,5.10
2017-11-03T03:46:18.875Z,5.20
2017-11-03T03:48:47.225Z,5.20
2017-11-03T03:51:16.384Z,5.20
2017-11-03T03:53:44.781Z,5.20
2017-11-03T03:56:13.127Z,5.20
2017-11-03T03:58:41.457Z,5.20
2017-11-03T04:01:09.781Z,5.30
2017-11-03T04:03:38.928Z,5.30
2017-11-03T04:06:07.332Z,5.30
2017-11-03T04:08:35.726Z,5.40
2017-11-03T04:11:04.046Z,5.40
2017-11-03T04:13:32.384Z,5.40
2017-11-03T04:16:00.731Z,5.30
2017-11-03T04:18:29.071Z,5.30
2017-11-03T04:20:57.420Z,5.30
2017-11-03T04:23:25.765Z,5.30
2017-11-03T04:25:54.088Z,5.40
2017-11-03T04:28:23.176Z,5.40
2017-11-03T04:30:51.466Z,5.40
2017-11-03T04:33:19.781Z,5.40
2017-11-03T04:35:48.083Z,5.40
2017-11-03T04:38:17.167Z,5.30
2017-11-03T04:40:45.481Z,5.30
2017-11-03T04:43:14.553Z,5.30
2017-11-03T04:45:42.885Z,5.30
2017-11-03T04:48:12.002Z,5.30
2017-11-03T04:50:40.323Z,5.30
2017-11-03T04:53:08.712Z,5.40
2017-11-03T04:55:37.121Z,5.40
2017-11-03T04:58:05.485Z,5.50
2017-11-03T05:00:33.835Z,5.50
2017-11-03T05:03:02.937Z,5.50
2017-11-03T05:05:32.047Z,5.50
2017-11-03T05:08:01.160Z,5.50
2017-11-03T05:10:30.291Z,5.60
2017-11-03T05:12:58.672Z,5.60
2017-11-03T05:15:27.058Z,5.60
2017-11-03T05:17:55.433Z,5.70
2017-11-03T05:20:23.774Z,5.70
2017-11-03T05:22:52.867Z,5.70
2017-11-03T05:25:21.253Z,5.70
2017-11-03T05:27:49.646Z,5.80
2017-11-03T05:30:18.036Z,5.80
2017-11-03T05:32:46.429Z,5.80
2017-11-03T05:35:14.840Z,5.80
2017-11-03T05:37:43.136Z,5.80
2017-11-03T05:40:11.436Z,5.80
2017-11-03T05:42:39.733Z,5.80
2017-11-03T05:45:08.037Z,5.80
2017-11-03T05:47:36.352Z,5.80
2017-11-03T05:50:04.648Z,5.80
2017-11-03T05:52:32.936Z,5.90
2017-11-03T05:55:01.227Z,5.90
2017-11-03T05:57:29.646Z,5.90
2017-11-03T05:59:57.940Z,5.90
2017-11-03T06:02:26.225Z,6.00
2017-11-03T06:04:54.522Z,6.00
2017-11-03T06:07:22.803Z,5.90
2017-11-03T06:09:51.100Z,6.00
2017-11-03T06:12:19.405Z,6.00
2017-11-03T06:14:47.696Z,6.00
2017-11-03T06:17:16.038Z,6.00
2017-11-03T06:19:44.348Z,6.00
2017-11-03T06:22:12.670Z,6.10
2017-11-03T06:24:40.970Z,6.10
2017-11-03T06:27:10.031Z,6.10
2017-11-03T06:29:38.323Z,6.10
2017-11-03T06:32:06.612Z,6.10
2017-11-03T06:34:34.907Z,6.10
2017-11-03T06:37:03.190Z,6.10
2017-11-03T06:39:31.500Z,6.10
2017-11-03T06:41:59.783Z,6.20
2017-11-03T06:44:28.099Z,6.30
2017-11-03T06:46:57.164Z,6.30
2017-11-03T06:49:25.464Z,6.30
2017-11-03T06:51:53.761Z,6.30
2017-11-03T06:54:22.077Z,6.40
2017-11-03T06:56:51.753Z,6.50
2017-11-03T06:59:20.057Z,6.40
2017-11-03T07:01:49.364Z,6.50
2017-11-03T07:04:18.557Z,6.50
2017-11-03T07:06:46.893Z,6.50
2017-11-03T07:09:16.430Z,6.50
2017-11-03T07:11:45.304Z,6.50
2017-11-03T07:14:14.562Z,6.50
2017-11-03T07:16:43.346Z,6.60
2017-11-03T07:19:12.407Z,6.60
2017-11-03T07:21:41.619Z,6.70
2017-11-03T07:24:09.909Z,6.70
2017-11-03T07:26:38.985Z,6.70
2017-11-03T07:29:07.367Z,6.70
2017-11-03T07:31:37.947Z,6.90
2017-11-03T07:34:06.324Z,6.90
2017-11-03T07:36:35.367Z,6.90
2017-11-03T07:39:05.069Z,6.90
2017-11-03T07:41:34.144Z,6.80
2017-11-03T07:44:03.903Z,6.90
2017-11-03T07:46:32.887Z,6.90
2017-11-03T07:49:01.386Z,7.00
2017-11-03T07:51:30.661Z,7.00
2017-11-03T07:53:59.080Z,7.00
2017-11-03T07:56:27.958Z,7.10
2017-11-03T07:58:57.173Z,7.00
2017-11-03T08:01:25.561Z,7.00
2017-11-03T08:03:54.478Z,7.00
2017-11-03T08:06:22.862Z,7.00
2017-11-03T08:08:51.442Z,7.00
2017-11-03T08:11:19.782Z,7.00
2017-11-03T08:13:49.505Z,7.00
2017-11-03T08:16:18.264Z,7.10
2017-11-03T08:18:47.111Z,7.10
2017-11-03T08:21:15.534Z,7.20
2017-11-03T08:23:43.919Z,7.20
2017-11-03T08:26:13.524Z,7.20
2017-11-03T08:28:42.184Z,7.20
2017-11-03T08:31:10.507Z,7.30
2017-11-03T08:33:38.804Z,7.30
2017-11-03T08:36:07.116Z,7.40
2017-11-03T08:38:35.553Z,7.40
2017-11-03T08:41:03.862Z,7.50
2017-11-03T08:43:32.927Z,7.70
2017-11-03T08:46:01.216Z,7.60
2017-11-03T08:48:29.521Z,7.70
2017-11-03T08:50:57.836Z,7.70
2017-11-03T08:53:26.153Z,7.70
2017-11-03T08:55:55.219Z,7.60
2017-11-03T08:58:23.517Z,7.60
2017-11-03T09:00:51.816Z,7.50
2017-11-03T09:03:20.149Z,7.50
2017-11-03T09:05:48.633Z,7.50
2017-11-03T09:08:16.932Z,7.50
2017-11-03T09:10:45.279Z,7.50
2017-11-03T09:13:13.603Z,7.50
2017-11-03T09:15:41.898Z,7.40
2017-11-03T09:18:10.190Z,7.50
2017-11-03T09:20:38.482Z,7.50
2017-11-03T09:23:06.791Z,7.60
2017-11-03T09:25:35.139Z,7.60
2017-11-03T09:28:04.191Z,7.80
2017-11-03T09:30:32.495Z,7.80
2017-11-03T09:33:00.804Z,7.90
2017-11-03T09:35:29.859Z,8.00
2017-11-03T09:37:58.186Z,8.00
2017-11-03T09:40:26.494Z,8.00
2017-11-03T09:42:55.556Z,8.10
2017-11-03T09:45:23.844Z,8.10
2017-11-03T09:47:52.135Z,8.10
2017-11-03T09:50:20.456Z,8.20
2017-11-03T09:52:48.791Z,8.30
2017-11-03T09:55:17.093Z,8.30
2017-11-03T09:57:46.678Z,8.40
2017-11-03T10:00:15.234Z,8.50
2017-11-03T10:02:43.587Z,8.50
2017-11-03T10:05:11.870Z,8.60
2017-11-03T10:07:40.194Z,8.70
2017-11-03T10:10:08.478Z,8.80
2017-11-03T10:12:36.754Z,8.70
2017-11-03T10:15:05.045Z,8.70
2017-11-03T10:17:33.322Z,8.80
2017-11-03T10:20:01.628Z,9.00
2017-11-03T10:22:29.916Z,9.00
2017-11-03T10:24:58.213Z,9.10
2017-11-03T10:27:26.515Z,9.20
2017-11-03T10:29:54.815Z,9.20
2017-11-03T10:32:23.127Z,9.20
2017-11-03T10:34:52.207Z,9.20
2017-11-03T10:37:20.505Z,9.20
2017-11-03T10:39:48.803Z,9.30
2017-11-03T10:42:17.888Z,9.10
2017-11-03T10:44:46.191Z,9.10
2017-11-03T10:47:14.487Z,9.10
2017-11-03T10:49:43.546Z,9.20
2017-11-03T10:52:11.822Z,9.20
2017-11-03T10:54:40.116Z,9.40
2017-11-03T10:57:08.408Z,9.60
2017-11-03T10:59:36.724Z,9.90
2017-11-03T11:02:05.019Z,10.10
2017-11-03T11:04:33.316Z,10.00
2017-11-03T11:07:01.621Z,10.00
2017-11-03T11:09:29.989Z,10.10
2017-11-03T11:11:59.129Z,10.00
2017-11-03T11:14:28.274Z,9.80
2017-11-03T11:16:56.634Z,9.80
2017-11-03T11:19:24.976Z,9.60
2017-11-03T11:21:53.336Z,9.50
2017-11-03T11:24:21.694Z,9.50
2017-11-03T11:26:50.817Z,10.10
2017-11-03T11:29:19.177Z,10.10
2017-11-03T11:31:48.341Z,10.10
2017-11-03T11:34:16.838Z,10.10
2017-11-03T11:36:45.231Z,10.10
2017-11-03T11:39:14.422Z,10.40
2017-11-03T11:41:42.759Z,10.40
2017-11-03T11:44:11.193Z,10.30
2017-11-03T11:46:39.551Z,10.30
2017-11-03T11:49:08.667Z,10.30
2017-11-03T11:51:37.759Z,10.40
2017-11-03T11:54:06.114Z,10.40
2017-11-03T11:56:36.298Z,10.50
2017-11-03T11:59:04.783Z,10.70
2017-11-03T12:01:33.086Z,10.70
2017-11-03T12:04:03.370Z,11.00
2017-11-03T12:06:32.118Z,10.90
2017-11-03T12:09:00.488Z,10.90
2017-11-03T12:11:28.799Z,10.70
2017-11-03T12:14:00.874Z,10.50
2017-11-03T12:16:29.860Z,10.50
2017-11-03T12:18:59.084Z,10.40
2017-11-03T12:21:29.686Z,10.40
2017-11-03T12:23:59.522Z,10.40
2017-11-03T12:26:30.851Z,10.90
2017-11-03T12:28:59.993Z,10.90
2017-11-03T12:31:30.582Z,11.20
2017-11-03T12:33:59.314Z,11.20
2017-11-03T12:36:29.070Z,11.20
2017-11-03T12:38:57.490Z,11.10
2017-11-03T12:41:26.549Z,11.00
2017-11-03T12:43:54.882Z,11.10
2017-11-03T12:46:23.941Z,11.40
2017-11-03T12:48:52.256Z,11.40
2017-11-03T12:51:20.572Z,11.50
2017-11-03T12:53:48.870Z,11.40
2017-11-03T12:56:17.214Z,11.40
2017-11-03T12:58:45.526Z,11.70
2017-11-03T13:01:14.636Z,11.90
2017-11-03T13:03:43.725Z,11.70
2017-11-03T13:06:12.060Z,11.60
2017-11-03T13:08:40.426Z,11.40
2017-11-03T13:11:09.536Z,11.30
2017-11-03T13:13:38.687Z,11.40
2017-11-03T13:16:07.841Z,11.20
2017-11-03T13:18:36.939Z,10.90
2017-11-03T13:21:06.065Z,10.50
2017-11-03T13:23:35.174Z,10.30
2017-11-03T13:26:03.524Z,10.30
2017-11-03T13:28:31.936Z,10.20
2017-11-03T13:31:01.048Z,11.10
2017-11-03T13:33:29.425Z,11.00
2017-11-03T13:35:57.795Z,11.50
2017-11-03T13:38:26.157Z,11.80
2017-11-03T13:40:55.420Z,11.50
2017-11-03T13:43:23.807Z,10.90
2017-11-03T13:45:52.333Z,10.40
2017-11-03T13:48:21.415Z,9.70
2017-11-03T13:50:49.715Z,9.70
2017-11-03T13:53:18.015Z,9.50
2017-11-03T13:55:47.168Z,9.10
2017-11-03T13:58:15.545Z,9.10
2017-11-03T14:00:43.910Z,9.10
2017-11-03T14:03:13.020Z,8.90
2017-11-03T14:05:42.120Z,8.90
2017-11-03T14:08:11.070Z,8.90
2017-11-03T14:10:39.451Z,9.00
2017-11-03T14:13:07.828Z,9.20
2017-11-03T14:15:36.159Z,9.20
2017-11-03T14:18:04.473Z,9.60
2017-11-03T14:20:33.599Z,10.40
2017-11-03T14:23:02.656Z,10.60
2017-11-03T14:25:30.955Z,10.60
2017-11-03T14:27:59.294Z,10.40
2017-11-03T14:30:27.598Z,10.00
2017-11-03T14:32:55.890Z,9.70
2017-11-03T14:35:25.155Z,9.60
2017-11-03T14:37:53.467Z,9.50
2017-11-03T14:40:21.790Z,9.50
2017-11-03T14:42:50.099Z,9.50
2017-11-03T14:45:18.431Z,9.50
2017-11-03T14:47:47.486Z,9.40
2017-11-03T14:50:15.795Z,9.40
2017-11-03T14:52:44.124Z,9.40
2017-11-03T14:55:13.171Z,9.00
2017-11-03T14:57:41.465Z,9.00
2017-11-03T15:00:09.762Z,8.70
2017-11-03T15:02:38.063Z,8.40
2017-11-03T15:05:06.369Z,8.20
2017-11-03T15:07:34.668Z,8.00
2017-11-03T15:10:03.739Z,7.70
2017-11-03T15:12:32.058Z,7.70
2017-11-03T15:15:01.140Z,7.50
2017-11-03T15:17:29.425Z,7.40
2017-11-03T15:19:57.729Z,7.40
2017-11-03T15:22:26.015Z,7.20
2017-11-03T15:24:54.314Z,7.10
2017-11-03T15:27:22.615Z,7.00
2017-11-03T15:29:51.686Z,6.70
2017-11-03T15:32:20.040Z,6.70
2017-11-03T15:34:48.356Z,6.60
2017-11-03T15:37:16.664Z,6.50
2017-11-03T15:39:45.777Z,6.40
2017-11-03T15:42:14.230Z,6.40
2017-11-03T15:44:42.532Z,6.40
2017-11-03T15:47:10.826Z,6.30
2017-11-03T15:49:39.129Z,6.20
2017-11-03T15:52:07.427Z,6.10
2017-11-03T15:54:35.792Z,6.10
2017-11-03T15:57:04.100Z,6.00
2017-11-03T15:59:32.422Z,5.90
2017-11-03T16:02:01.720Z,5.80
2017-11-03T16:04:30.039Z,5.80
2017-11-03T16:06:58.322Z,5.70
2017-11-03T16:09:26.615Z,5.60
2017-11-03T16:11:54.928Z,5.50
2017-11-03T16:14:23.260Z,5.50
2017-11-03T16:16:52.521Z,5.50
2017-11-03T16:19:21.054Z,5.40
2017-11-03T16:21:49.448Z,5.40
2017-11-03T16:24:17.792Z,5.40
2017-11-03T16:26:46.090Z,5.20
2017-11-03T16:29:14.380Z,5.10
2017-11-03T16:31:42.672Z,4.90
2017-11-03T16:34:10.960Z,4.80
2017-11-03T16:36:39.267Z,4.60
2017-11-03T16:39:07.566Z,4.50
2017-11-03T16:41:35.858Z,4.30
2017-11-03T16:44:04.156Z,4.20
2017-11-03T16:49:32.415Z,4.10
2017-11-03T16:55:18.027Z,4.00
2017-11-03T16:57:47.109Z,4.00
2017-11-03T17:00:19.904Z,4.00
2017-11-03T17:02:49.002Z,3.80
2017-11-03T17:05:17.303Z,3.80
2017-11-03T17:07:45.617Z,3.70
2017-11-03T17:10:13.920Z,3.60
2017-11-03T17:12:42.275Z,3.60
2017-11-03T17:15:11.340Z,3.40
2017-11-03T17:17:39.629Z,3.40
2017-11-03T17:20:07.936Z,3.30
2017-11-03T17:22:36.231Z,3.20
2017-11-03T17:25:04.517Z,3.10
2017-11-03T17:27:32.851Z,3.10
2017-11-03T17:30:01.177Z,3.00
2017-11-03T17:32:29.470Z,3.00
2017-11-03T17:34:57.835Z,3.00
2017-11-03T17:37:27.070Z,3.00
2017-11-03T17:39:55.413Z,2.90
2017-11-03T17:42:24.483Z,3.00
2017-11-03T17:44:52.812Z,3.00
2017-11-03T17:47:21.880Z,2.90
2017-11-03T17:49:50.212Z,2.90
2017-11-03T17:52:18.524Z,2.90
2017-11-03T17:54:46.840Z,3.00
2017-11-03T17:57:17.240Z,3.00
2017-11-03T17:59:45.918Z,2.90
2017-11-03T18:02:15.030Z,2.80
2017-11-03T18:04:43.472Z,2.80
2017-11-03T18:07:11.778Z,2.70
2017-11-03T18:09:40.075Z,2.60
2017-11-03T18:12:08.392Z,2.60
2017-11-03T18:14:37.453Z,2.60
2017-11-03T18:17:05.774Z,2.60
2017-11-03T18:19:34.843Z,2.60
2017-11-03T18:22:03.128Z,2.60
2017-11-03T18:24:31.693Z,2.60
2017-11-03T18:27:01.471Z,2.60
2017-11-03T18:29:31.058Z,2.50
2017-11-03T18:31:59.745Z,2.50
2017-11-03T18:34:28.738Z,2.50
2017-11-03T18:36:57.538Z,2.50
2017-11-03T18:39:26.222Z,2.60
2017-11-03T18:41:57.421Z,2.40
2017-11-03T18:44:25.997Z,2.40
2017-11-03T18:46:56.493Z,2.40
2017-11-03T18:49:26.021Z,2.40
2017-11-03T18:51:54.794Z,2.40
2017-11-03T18:54:24.897Z,2.30
2017-11-03T18:56:53.601Z,2.30
2017-11-03T18:59:22.458Z,2.30
2017-11-03T19:01:52.248Z,2.30
2017-11-03T19:04:21.032Z,2.30
2017-11-03T19:06:50.669Z,2.30
2017-11-03T19:09:19.472Z,2.20
2017-11-03T19:11:48.381Z,2.20
2017-11-03T19:14:18.073Z,2.20
2017-11-03T19:16:47.485Z,2.20
2017-11-03T19:19:16.120Z,2.20
2017-11-03T19:21:45.678Z,2.20
2017-11-03T19:24:15.544Z,2.30
2017-11-03T19:26:44.143Z,2.20
2017-11-03T19:29:12.838Z,2.20
2017-11-03T19:31:41.723Z,2.10
2017-11-03T19:34:10.310Z,2.10
2017-11-03T19:36:40.235Z,2.00
2017-11-03T19:39:09.901Z,2.00
2017-11-03T19:41:38.520Z,2.00
2017-11-03T19:44:07.742Z,2.00
2017-11-03T19:46:36.689Z,1.90
2017-11-03T19:49:06.074Z,1.90
2017-11-03T19:51:35.660Z,1.90
2017-11-03T19:54:04.230Z,1.90
2017-11-03T19:56:33.986Z,2.00
2017-11-03T19:59:02.954Z,1.90
2017-11-03T20:01:31.732Z,1.90
2017-11-03T20:04:00.799Z,1.90
2017-11-03T20:06:29.430Z,1.90
2017-11-03T20:08:58.829Z,1.90
2017-11-03T20:11:27.810Z,1.90
2017-11-03T20:13:56.502Z,1.90
2017-11-03T20:16:26.140Z,1.90
2017-11-03T20:18:55.560Z,1.90
2017-11-03T20:21:24.202Z,1.90
2017-11-03T20:23:52.886Z,1.80
2017-11-03T20:26:21.606Z,1.80
2017-11-03T20:28:50.274Z,1.80
2017-11-03T20:31:20.487Z,1.80
2017-11-03T20:33:49.290Z,1.70
2017-11-03T20:36:17.967Z,1.70
2017-11-03T20:38:46.678Z,1.70
2017-11-03T20:41:15.339Z,1.70
2017-11-03T20:43:44.974Z,1.80
2017-11-03T20:46:15.726Z,1.80
2017-11-03T20:48:44.389Z,1.70
2017-11-03T20:51:13.909Z,1.80
2017-11-03T20:53:42.966Z,1.70
2017-11-03T20:56:12.415Z,1.90
2017-11-03T20:58:41.095Z,1.90
2017-11-03T21:01:09.709Z,1.90
2017-11-03T21:03:38.444Z,1.80
2017-11-03T21:06:08.025Z,1.70
2017-11-03T21:08:36.594Z,1.60
2017-11-03T21:11:05.155Z,1.50
2017-11-03T21:13:34.768Z,1.50
2017-11-03T21:16:04.293Z,1.50
2017-11-03T21:18:33.422Z,1.50
2017-11-03T21:21:03.224Z,1.50
2017-11-03T21:23:32.574Z,1.50
2017-11-03T21:26:01.588Z,1.40
2017-11-03T21:28:31.816Z,1.40
2017-11-03T21:31:01.361Z,1.30
2017-11-03T21:33:30.009Z,1.30
2017-11-03T21:35:58.697Z,1.40
2017-11-03T21:38:27.050Z,1.40
2017-11-03T21:40:55.347Z,1.40
2017-11-03T21:43:23.663Z,1.40
2017-11-03T21:45:51.960Z,1.40
2017-11-03T21:48:20.259Z,1.40
2017-11-03T21:50:49.342Z,1.30
2017-11-03T21:53:17.709Z,1.30
2017-11-03T21:58:39.030Z,1.30
2017-11-03T22:04:07.160Z,1.40
2017-11-03T22:06:35.465Z,1.30
2017-11-03T22:09:03.764Z,1.30
2017-11-03T22:11:32.057Z,1.30
2017-11-03T22:20:07.757Z,1.20
2017-11-03T22:22:36.117Z,1.20
2017-11-03T22:25:04.814Z,1.20
2017-11-03T22:27:33.979Z,1.20
2017-11-03T22:30:03.312Z,1.20
2017-11-03T22:32:31.833Z,1.20
2017-11-03T22:35:00.278Z,1.10
2017-11-03T22:37:28.731Z,1.20
2017-11-03T22:39:57.138Z,1.20
2017-11-03T22:42:25.648Z,1.20
2017-11-03T22:44:54.047Z,1.20
2017-11-03T22:47:23.413Z,1.10
2017-11-03T22:49:51.960Z,1.10
2017-11-03T22:52:20.338Z,1.00
2017-11-03T22:54:48.653Z,1.00
2017-11-03T22:57:17.256Z,1.00
2017-11-03T22:59:45.924Z,0.90
2017-11-03T23:02:14.504Z,0.90
2017-11-03T23:04:43.103Z,0.80
2017-11-03T23:07:11.798Z,0.70
2017-11-03T23:09:40.229Z,0.80
2017-11-03T23:12:09.656Z,0.70
2017-11-03T23:14:38.269Z,0.70
2017-11-03T23:17:06.795Z,0.70
2017-11-03T23:19:35.396Z,0.60
2017-11-03T23:22:04.036Z,0.60
2017-11-03T23:24:32.479Z,0.60
2017-11-03T23:27:00.869Z,0.60
2017-11-03T23:29:29.276Z,0.60
2017-11-03T23:31:57.580Z,0.50
2017-11-03T23:34:26.079Z,0.60
2017-11-03T23:36:54.469Z,0.50
2017-11-03T23:39:23.004Z,0.50
2017-11-03T23:41:51.512Z,0.50
2017-11-03T23:44:20.111Z,0.50
2017-11-03T23:46:48.687Z,0.40
2017-11-03T23:49:17.264Z,0.60
2017-11-03T23:51:45.988Z,0.60
2017-11-03T23:54:15.175Z,0.60
2017-11-03T23:56:43.663Z,0.60
2017-11-03T23:59:12.210Z,0.60
